createdAt,value
2019-02-09T00:00:44.379Z,1.80
2019-02-09T00:01:44.628Z,1.90
2019-02-09T00:02:44.242Z,1.70
2019-02-09T00:03:44.340Z,1.50
2019-02-09T00:04:44.189Z,1.80
2019-02-09T00:05:44.195Z,1.90
2019-02-09T00:06:44.368Z,1.70
2019-02-09T00:07:44.620Z,1.60
2019-02-09T00:08:44.272Z,1.70
2019-02-09T00:09:44.241Z,1.70
2019-02-09T00:10:44.263Z,1.80
2019-02-09T00:11:44.324Z,1.60
2019-02-09T00:12:44.303Z,2.00
2019-02-09T00:13:44.239Z,1.70
2019-02-09T00:14:44.315Z,1.70
2019-02-09T00:15:44.510Z,1.80
2019-02-09T00:16:44.329Z,1.90
2019-02-09T00:17:44.037Z,1.90
2019-02-09T00:18:44.021Z,1.60
2019-02-09T00:19:43.991Z,1.80
2019-02-09T00:20:43.977Z,2.00
2019-02-09T00:21:44.000Z,1.90
2019-02-09T00:22:43.936Z,1.80
2019-02-09T00:23:44.056Z,1.70
2019-02-09T00:24:43.969Z,1.80
2019-02-09T00:25:43.982Z,1.70
2019-02-09T00:26:43.886Z,1.60
2019-02-09T00:27:43.862Z,1.50
2019-02-09T00:28:43.918Z,1.80
2019-02-09T00:29:46.319Z,1.60
2019-02-09T00:30:43.890Z,1.80
2019-02-09T00:31:43.853Z,2.00
2019-02-09T00:32:43.902Z,1.70
2019-02-09T00:33:43.918Z,1.80
2019-02-09T00:34:43.825Z,2.00
2019-02-09T00:35:43.799Z,1.50
2019-02-09T00:36:43.809Z,1.90
2019-02-09T00:37:43.854Z,1.70
2019-02-09T00:38:43.810Z,1.70
2019-02-09T00:39:43.738Z,1.90
2019-02-09T00:40:43.725Z,1.50
2019-02-09T00:41:43.751Z,1.60
2019-02-09T00:42:43.791Z,1.70
2019-02-09T00:43:43.723Z,1.70
2019-02-09T00:44:43.729Z,1.80
2019-02-09T00:45:43.770Z,1.80
2019-02-09T00:46:44.255Z,1.70
2019-02-09T00:47:44.211Z,1.90
2019-02-09T00:48:44.538Z,1.90
2019-02-09T00:49:44.128Z,1.80
2019-02-09T00:50:45.695Z,1.80
2019-02-09T00:52:04.815Z,1.70
2019-02-09T00:52:45.462Z,2.00
2019-02-09T00:53:44.034Z,1.70
2019-02-09T00:54:43.697Z,1.80
2019-02-09T00:55:43.765Z,1.70
2019-02-09T00:56:43.586Z,1.60
2019-02-09T00:57:43.841Z,1.50
2019-02-09T00:58:44.348Z,1.60
2019-02-09T00:59:43.844Z,1.50
2019-02-09T01:00:43.830Z,1.60
2019-02-09T01:01:44.208Z,1.60
2019-02-09T01:02:44.552Z,1.80
2019-02-09T01:03:44.143Z,1.50
2019-02-09T01:04:43.955Z,1.80
2019-02-09T01:05:44.241Z,1.60
2019-02-09T01:06:44.455Z,1.70
2019-02-09T01:07:43.470Z,1.50
2019-02-09T01:08:43.491Z,1.30
2019-02-09T01:09:43.426Z,1.50
2019-02-09T01:10:43.404Z,1.50
2019-02-09T01:11:43.389Z,1.40
2019-02-09T01:12:43.387Z,1.40
2019-02-09T01:13:43.427Z,1.30
2019-02-09T01:14:43.356Z,1.30
2019-02-09T01:15:43.399Z,1.60
2019-02-09T01:16:43.358Z,1.50
2019-02-09T01:17:43.328Z,1.30
2019-02-09T01:18:43.345Z,1.40
2019-02-09T01:19:43.303Z,1.40
2019-02-09T01:20:43.304Z,1.30
2019-02-09T01:21:43.293Z,1.40
2019-02-09T01:22:43.340Z,1.30
2019-02-09T01:23:43.276Z,1.40
2019-02-09T01:24:43.257Z,1.40
2019-02-09T01:25:43.255Z,1.30
2019-02-09T01:26:43.230Z,1.20
2019-02-09T01:27:43.213Z,1.30
2019-02-09T01:28:43.236Z,1.40
2019-02-09T01:29:43.202Z,1.30
2019-02-09T01:30:43.194Z,1.30
2019-02-09T01:31:43.172Z,1.40
2019-02-09T01:32:43.165Z,1.20
2019-02-09T01:33:43.175Z,1.30
2019-02-09T01:34:43.144Z,1.40
2019-02-09T01:35:43.145Z,1.20
2019-02-09T01:36:43.119Z,1.30
2019-02-09T01:37:43.104Z,1.10
2019-02-09T01:38:43.142Z,1.20
2019-02-09T01:39:43.103Z,1.50
2019-02-09T01:40:43.080Z,1.30
2019-02-09T01:41:43.066Z,1.30
2019-02-09T01:42:43.059Z,1.60
2019-02-09T01:43:43.051Z,1.20
2019-02-09T01:44:43.056Z,1.30
2019-02-09T01:45:43.022Z,1.30
2019-02-09T01:46:43.063Z,1.20
2019-02-09T01:47:43.001Z,1.10
2019-02-09T01:48:43.027Z,1.30
2019-02-09T01:49:43.006Z,1.40
2019-02-09T01:50:42.981Z,1.30
2019-02-09T01:51:42.955Z,1.20
2019-02-09T01:52:42.943Z,1.20
2019-02-09T01:53:42.987Z,1.50
2019-02-09T01:54:42.972Z,1.30
2019-02-09T01:55:42.924Z,1.60
2019-02-09T01:56:42.921Z,1.50
2019-02-09T01:57:42.894Z,1.30
2019-02-09T01:58:42.879Z,1.20
2019-02-09T01:59:42.902Z,1.40
2019-02-09T02:00:42.862Z,1.40
2019-02-09T02:01:42.846Z,1.20
2019-02-09T02:02:42.842Z,1.20
2019-02-09T02:03:42.846Z,1.50
2019-02-09T02:04:42.817Z,1.20
2019-02-09T02:05:42.822Z,1.30
2019-02-09T02:06:42.793Z,1.20
2019-02-09T02:07:42.809Z,1.20
2019-02-09T02:08:42.782Z,1.20
2019-02-09T02:09:42.757Z,1.10
2019-02-09T02:10:42.772Z,1.20
2019-02-09T02:11:42.812Z,1.30
2019-02-09T02:12:42.728Z,1.20
2019-02-09T02:13:42.733Z,1.30
2019-02-09T02:14:42.713Z,1.10
2019-02-09T02:15:42.712Z,1.10
2019-02-09T02:16:42.693Z,1.10
2019-02-09T02:17:42.699Z,1.20
2019-02-09T02:18:42.671Z,1.20
2019-02-09T02:19:42.665Z,1.20
2019-02-09T02:20:42.662Z,1.00
2019-02-09T02:21:42.621Z,1.10
2019-02-09T02:22:42.619Z,1.10
2019-02-09T02:23:42.604Z,1.10
2019-02-09T02:24:42.602Z,1.20
2019-02-09T02:25:42.649Z,1.10
2019-02-09T02:26:42.604Z,1.20
2019-02-09T02:27:42.558Z,1.30
2019-02-09T02:28:42.550Z,1.50
2019-02-09T02:29:42.537Z,1.20
2019-02-09T02:30:42.571Z,1.40
2019-02-09T02:31:42.541Z,1.10
2019-02-09T02:32:42.523Z,1.20
2019-02-09T02:33:42.496Z,1.10
2019-02-09T02:34:42.482Z,1.10
2019-02-09T02:35:42.515Z,1.10
2019-02-09T02:36:42.467Z,1.10
2019-02-09T02:37:42.455Z,1.00
2019-02-09T02:38:42.470Z,1.00
2019-02-09T02:39:42.436Z,0.90
2019-02-09T02:40:42.473Z,1.10
2019-02-09T02:41:42.400Z,0.90
2019-02-09T02:42:42.488Z,1.10
2019-02-09T02:43:42.388Z,1.10
2019-02-09T02:44:42.438Z,1.10
2019-02-09T02:45:42.372Z,1.00
2019-02-09T02:46:42.376Z,1.00
2019-02-09T02:47:42.338Z,1.10
2019-02-09T02:48:42.361Z,1.20
2019-02-09T02:49:42.325Z,1.10
2019-02-09T02:50:42.330Z,1.20
2019-02-09T02:51:42.342Z,1.10
2019-02-09T02:52:42.288Z,1.00
2019-02-09T02:53:42.295Z,1.20
2019-02-09T02:54:42.282Z,1.10
2019-02-09T02:55:42.259Z,1.10
2019-02-09T02:56:42.308Z,1.10
2019-02-09T02:57:42.256Z,1.10
2019-02-09T02:58:42.226Z,0.90
2019-02-09T02:59:42.270Z,1.20
2019-02-09T03:00:42.216Z,1.20
2019-02-09T03:01:42.208Z,1.00
2019-02-09T03:02:42.188Z,0.90
2019-02-09T03:03:42.223Z,1.00
2019-02-09T03:04:42.166Z,0.90
2019-02-09T03:05:42.141Z,0.90
2019-02-09T03:06:42.158Z,1.10
2019-02-09T03:07:42.199Z,0.90
2019-02-09T03:08:42.117Z,0.90
2019-02-09T03:09:42.106Z,0.80
2019-02-09T03:10:42.092Z,1.00
2019-02-09T03:11:42.139Z,1.00
2019-02-09T03:12:42.070Z,0.80
2019-02-09T03:13:42.087Z,0.90
2019-02-09T03:14:42.094Z,0.90
2019-02-09T03:15:42.048Z,1.10
2019-02-09T03:16:42.056Z,1.00
2019-02-09T03:17:42.033Z,0.80
2019-02-09T03:18:42.001Z,0.80
2019-02-09T03:19:42.027Z,0.80
2019-02-09T03:20:41.987Z,1.10
2019-02-09T03:21:41.990Z,0.90
2019-02-09T03:22:41.983Z,0.80
2019-02-09T03:23:42.041Z,0.90
2019-02-09T03:24:41.940Z,1.10
2019-02-09T03:25:41.940Z,1.10
2019-02-09T03:26:41.921Z,1.00
2019-02-09T03:27:43.524Z,1.00
2019-02-09T03:28:42.003Z,0.80
2019-02-09T03:29:41.888Z,1.30
2019-02-09T03:30:48.033Z,1.00
2019-02-09T03:31:42.889Z,0.90
2019-02-09T03:32:41.903Z,1.10
2019-02-09T03:33:41.844Z,1.10
2019-02-09T03:34:41.842Z,1.00
2019-02-09T03:35:41.834Z,0.90
2019-02-09T03:36:41.811Z,1.00
2019-02-09T03:37:41.900Z,0.90
2019-02-09T03:38:41.795Z,0.80
2019-02-09T03:39:41.781Z,1.00
2019-02-09T03:40:41.777Z,0.90
2019-02-09T03:41:41.782Z,0.90
2019-02-09T03:42:41.779Z,0.90
2019-02-09T03:43:41.748Z,0.80
2019-02-09T03:44:41.804Z,0.70
2019-02-09T03:45:41.731Z,0.70
2019-02-09T03:46:41.723Z,0.90
2019-02-09T03:47:41.703Z,0.70
2019-02-09T03:48:42.075Z,0.80
2019-02-09T03:49:41.670Z,0.80
2019-02-09T03:50:41.713Z,1.00
2019-02-09T03:51:41.648Z,0.70
2019-02-09T03:52:41.640Z,0.80
2019-02-09T03:53:41.645Z,0.80
2019-02-09T03:54:41.614Z,1.10
2019-02-09T03:55:41.606Z,0.90
2019-02-09T03:56:41.621Z,1.00
2019-02-09T03:57:41.592Z,1.10
2019-02-09T03:58:41.599Z,1.00
2019-02-09T03:59:41.570Z,1.50
2019-02-09T04:00:41.556Z,1.10
2019-02-09T04:01:41.565Z,1.10
2019-02-09T04:02:41.552Z,1.10
2019-02-09T04:03:41.583Z,1.10
2019-02-09T04:04:41.525Z,1.10
2019-02-09T04:05:41.500Z,1.10
2019-02-09T04:06:41.506Z,1.10
2019-02-09T04:07:41.480Z,1.10
2019-02-09T04:08:41.466Z,1.20
2019-02-09T04:09:41.474Z,1.10
2019-02-09T04:10:41.444Z,1.20
2019-02-09T04:11:41.465Z,1.10
2019-02-09T04:12:41.424Z,1.20
2019-02-09T04:13:41.411Z,1.40
2019-02-09T04:14:41.424Z,1.40
2019-02-09T04:15:41.445Z,1.20
2019-02-09T04:16:41.384Z,1.00
2019-02-09T04:17:41.374Z,1.20
2019-02-09T04:18:41.366Z,1.40
2019-02-09T04:19:42.033Z,1.30
2019-02-09T04:20:41.353Z,1.10
2019-02-09T04:21:41.322Z,1.00
2019-02-09T04:22:41.316Z,1.50
2019-02-09T04:23:41.295Z,1.10
2019-02-09T04:24:41.337Z,1.50
2019-02-09T04:25:41.283Z,1.20
2019-02-09T04:26:41.271Z,1.40
2019-02-09T04:27:41.265Z,1.30
2019-02-09T04:28:41.254Z,1.20
2019-02-09T04:29:41.237Z,0.90
2019-02-09T04:30:41.241Z,0.90
2019-02-09T04:31:41.250Z,1.20
2019-02-09T04:32:41.197Z,1.40
2019-02-09T04:33:41.193Z,1.40
2019-02-09T04:34:41.178Z,1.40
2019-02-09T04:35:41.212Z,1.40
2019-02-09T04:36:41.158Z,1.30
2019-02-09T04:37:41.146Z,1.50
2019-02-09T04:38:41.154Z,1.30
2019-02-09T04:39:41.133Z,1.10
2019-02-09T04:40:41.150Z,1.00
2019-02-09T04:41:41.112Z,1.00
2019-02-09T04:42:41.093Z,1.10
2019-02-09T04:43:41.091Z,1.10
2019-02-09T04:44:41.076Z,1.10
2019-02-09T04:45:41.080Z,1.00
2019-02-09T04:46:41.059Z,1.10
2019-02-09T04:47:41.039Z,1.20
2019-02-09T04:48:41.028Z,1.10
2019-02-09T04:49:41.015Z,1.10
2019-02-09T04:50:41.052Z,1.10
2019-02-09T04:51:40.995Z,1.10
2019-02-09T04:52:40.984Z,1.10
2019-02-09T04:53:40.988Z,1.30
2019-02-09T04:54:40.965Z,1.30
2019-02-09T04:55:40.973Z,1.40
2019-02-09T04:56:40.941Z,1.70
2019-02-09T04:57:40.941Z,1.60
2019-02-09T04:58:40.921Z,1.40
2019-02-09T04:59:40.919Z,1.50
2019-02-09T05:00:40.916Z,1.10
2019-02-09T05:01:40.883Z,1.20
2019-02-09T05:02:40.917Z,1.30
2019-02-09T05:03:40.896Z,1.40
2019-02-09T05:04:40.852Z,1.50
2019-02-09T05:05:40.917Z,1.40
2019-02-09T05:06:40.828Z,1.30
2019-02-09T05:07:40.819Z,1.30
2019-02-09T05:08:40.816Z,1.60
2019-02-09T05:09:40.832Z,1.40
2019-02-09T05:10:40.812Z,1.30
2019-02-09T05:11:40.791Z,1.50
2019-02-09T05:12:40.761Z,1.40
2019-02-09T05:13:40.744Z,1.20
2019-02-09T05:14:40.754Z,1.20
2019-02-09T05:15:40.729Z,1.30
2019-02-09T05:16:58.468Z,1.30
2019-02-09T05:18:06.661Z,1.30
2019-02-09T12:54:14.599Z,1.50
2019-02-09T12:55:14.496Z,2.10
2019-02-09T12:56:14.619Z,1.80
2019-02-09T12:57:14.995Z,1.90
2019-02-09T12:58:17.161Z,1.80
2019-02-09T12:59:15.442Z,2.30
2019-02-09T13:00:14.456Z,2.10
2019-02-09T13:01:18.929Z,2.60
2019-02-09T13:02:58.087Z,1.80
2019-02-09T13:03:19.734Z,2.00
2019-02-09T13:04:30.507Z,1.70
2019-02-09T13:05:37.705Z,2.40
2019-02-09T13:15:50.423Z,2.10
2019-02-09T14:53:24.412Z,2.30
2019-02-09T14:54:22.833Z,2.30
2019-02-09T14:55:23.426Z,2.40
2019-02-09T14:56:23.916Z,2.60
2019-02-09T14:57:23.818Z,2.30
2019-02-09T14:58:24.616Z,2.70
2019-02-09T14:59:23.099Z,3.70
2019-02-09T15:00:23.865Z,3.00
2019-02-09T15:01:23.294Z,3.00
2019-02-09T15:02:25.178Z,2.90
2019-02-09T15:03:26.938Z,2.20
2019-02-09T15:04:24.488Z,2.80
2019-02-09T15:05:23.875Z,3.30
2019-02-09T15:06:24.024Z,3.40
2019-02-09T15:07:22.793Z,3.30
2019-02-09T15:09:25.474Z,3.30
2019-02-09T15:10:23.447Z,2.50
2019-02-09T15:11:23.296Z,2.30
2019-02-09T15:12:24.001Z,2.40
2019-02-09T15:13:23.879Z,2.50
2019-02-09T15:14:26.167Z,2.00
2019-02-09T15:15:23.362Z,2.80
2019-02-09T15:16:22.584Z,2.30
2019-02-09T15:17:33.777Z,2.70
2019-02-09T15:18:23.851Z,2.10
2019-02-09T15:20:25.371Z,1.90
2019-02-09T15:21:23.555Z,2.00
2019-02-09T15:22:24.075Z,1.80
2019-02-09T15:23:22.928Z,1.80
2019-02-09T15:24:23.506Z,1.90
2019-02-09T15:25:26.450Z,1.80
2019-02-09T15:26:22.448Z,2.00
2019-02-09T15:27:23.328Z,1.50
2019-02-09T15:28:23.848Z,2.30
2019-02-09T15:31:38.469Z,1.50
2019-02-09T15:32:29.733Z,2.20
2019-02-09T15:33:36.034Z,1.80
2019-02-09T15:34:32.784Z,2.10
2019-02-09T15:36:08.777Z,1.70
2019-02-09T15:37:35.668Z,2.10
2019-02-09T16:48:59.652Z,1.80
2019-02-09T16:49:30.815Z,1.80
2019-02-09T16:50:41.054Z,1.90
2019-02-09T16:51:25.133Z,2.00
2019-02-09T16:52:31.479Z,2.10
2019-02-09T16:53:39.661Z,1.80
2019-02-09T16:54:31.784Z,1.60
2019-02-09T16:55:37.209Z,2.60
2019-02-09T16:56:25.466Z,1.80
2019-02-09T16:57:31.576Z,1.70
2019-02-09T16:58:28.639Z,1.70
2019-02-09T23:01:27.781Z,2.00
2019-02-09T23:02:27.627Z,2.50
2019-02-09T23:03:27.474Z,2.90
2019-02-09T23:04:27.276Z,2.80
2019-02-09T23:05:27.293Z,2.60
2019-02-09T23:06:27.248Z,2.30
2019-02-09T23:07:27.229Z,2.50
2019-02-09T23:08:27.348Z,2.50
2019-02-09T23:09:27.184Z,2.20
2019-02-09T23:10:27.226Z,2.30
2019-02-09T23:11:28.138Z,2.20
2019-02-09T23:12:28.138Z,2.40
2019-02-09T23:13:27.219Z,2.20
2019-02-09T23:14:27.133Z,2.50
2019-02-09T23:15:27.133Z,2.50
2019-02-09T23:16:27.157Z,2.50
2019-02-09T23:17:27.164Z,3.00
2019-02-09T23:18:27.085Z,2.50
2019-02-09T23:19:27.146Z,2.40
2019-02-09T23:20:27.134Z,2.20
2019-02-09T23:21:33.617Z,2.20
2019-02-09T23:22:27.054Z,3.10
2019-02-09T23:23:27.043Z,2.00
2019-02-09T23:24:27.025Z,2.50
2019-02-09T23:25:27.044Z,2.20
2019-02-09T23:26:27.003Z,2.50
2019-02-09T23:27:27.137Z,2.30
2019-02-09T23:28:28.318Z,2.70
2019-02-09T23:29:26.978Z,2.60
2019-02-09T23:30:26.971Z,2.60
2019-02-09T23:31:27.037Z,2.70
2019-02-09T23:32:27.035Z,2.60
2019-02-09T23:33:27.170Z,2.50
2019-02-09T23:34:26.930Z,2.60
2019-02-09T23:35:26.906Z,2.40
2019-02-09T23:36:26.900Z,2.40
2019-02-09T23:37:29.575Z,2.50
2019-02-09T23:38:26.921Z,2.60
2019-02-09T23:39:26.945Z,2.50
2019-02-09T23:40:26.899Z,2.40
2019-02-09T23:41:26.912Z,2.10
2019-02-09T23:42:30.007Z,2.50
2019-02-09T23:43:30.413Z,2.50
2019-02-09T23:44:26.941Z,2.70
2019-02-09T23:45:26.880Z,2.50
2019-02-09T23:46:26.841Z,2.70
2019-02-09T23:47:26.910Z,2.70
2019-02-09T23:48:27.191Z,2.70
2019-02-09T23:49:26.837Z,2.90
2019-02-09T23:50:26.779Z,2.70
2019-02-09T23:51:26.802Z,2.30
2019-02-09T23:52:26.807Z,2.80
2019-02-09T23:53:26.862Z,2.20
2019-02-09T23:54:26.758Z,2.40
2019-02-09T23:55:30.751Z,2.60
2019-02-09T23:56:26.714Z,2.70
2019-02-09T23:57:26.693Z,2.40
2019-02-09T23:58:26.776Z,2.40
2019-02-09T23:59:27.654Z,2.70
